AFL1504 URSS-UWLL
Flight info
| Callsign | AFL1504 |
|---|---|
| Flight time | N/A |
| Altitude | 36000 |
| Route | ADNET1D ADNET W79 NZ B145 ER G128 ST G900 KR P135 DAFOS T789 NEPNI NEPNI1E |
| Aircraft | A320/M-SDE3FGHIRWY/LB1 |
Departure
| Time | N/A |
|---|---|
| Airport | Sochi International Airport (URSS) |
Arrival
| Time | 2026-04-30 18:30 |
|---|---|
| Airport | Ulyanovsk Baratayevka Airport (UWLL) |
| Time | Latitude | Longitude | Altitude | Speed | Heading |
|---|---|---|---|---|---|
| 2026-04-30 17:39 | 50.97078 | 45.56779 | 35118 ft | 505 kts | 37° |
| 2026-04-30 17:41 | 51.21525 | 45.78195 | 35117 ft | 503 kts | 23° |
| 2026-04-30 17:42 | 51.27862 | 45.82987 | 35112 ft | 504 kts | 24° |
| 2026-04-30 17:43 | 51.43658 | 45.94964 | 35125 ft | 503 kts | 24° |
| 2026-04-30 17:44 | 51.62539 | 46.09593 | 35119 ft | 503 kts | 26° |
| 2026-04-30 17:47 | 51.88726 | 46.31402 | 35116 ft | 502 kts | 26° |
| 2026-04-30 17:48 | 52.10360 | 46.49556 | 35112 ft | 500 kts | 26° |
| 2026-04-30 17:50 | 52.35102 | 46.70534 | 35125 ft | 501 kts | 27° |
| 2026-04-30 17:52 | 52.53685 | 46.86470 | 35113 ft | 505 kts | 27° |
| 2026-04-30 17:53 | 52.69327 | 46.99998 | 33772 ft | 515 kts | 27° |
| 2026-04-30 17:54 | 52.80760 | 47.09962 | 31513 ft | 501 kts | 28° |
| 2026-04-30 17:55 | 52.92832 | 47.20542 | 29202 ft | 483 kts | 29° |
| 2026-04-30 17:56 | 53.04592 | 47.30939 | 26689 ft | 471 kts | 29° |
| 2026-04-30 17:57 | 53.13166 | 47.38532 | 25019 ft | 460 kts | 29° |
| 2026-04-30 17:58 | 53.21556 | 47.46017 | 23445 ft | 448 kts | 30° |
| 2026-04-30 17:59 | 53.32369 | 47.55696 | 21276 ft | 432 kts | 30° |
| 2026-04-30 18:00 | 53.42740 | 47.65053 | 19265 ft | 418 kts | 29° |
| 2026-04-30 18:00 | 53.50514 | 47.71418 | 17779 ft | 410 kts | 21° |
| 2026-04-30 18:01 | 53.55776 | 47.74885 | 16884 ft | 402 kts | 21° |
| 2026-04-30 18:02 | 53.63462 | 47.79984 | 15619 ft | 389 kts | 21° |
| 2026-04-30 18:02 | 53.70854 | 47.85129 | 14394 ft | 377 kts | 30° |
| 2026-04-30 18:03 | 53.77539 | 47.91740 | 13098 ft | 366 kts | 30° |
| 2026-04-30 18:04 | 53.83840 | 47.97979 | 12267 ft | 340 kts | 31° |
| 2026-04-30 18:05 | 53.91838 | 48.05942 | 9154 ft | 328 kts | 32° |
| 2026-04-30 18:06 | 53.99392 | 48.13513 | 6005 ft | 303 kts | 31° |
| 2026-04-30 18:07 | 54.06089 | 48.16763 | 5111 ft | 228 kts | 323° |
| 2026-04-30 18:08 | 54.06715 | 48.09834 | 5114 ft | 228 kts | 245° |
| 2026-04-30 18:09 | 54.03952 | 48.00104 | 4471 ft | 227 kts | 243° |
| 2026-04-30 18:10 | 54.05335 | 47.91389 | 3257 ft | 214 kts | 344° |
| 2026-04-30 18:11 | 54.09548 | 47.95697 | 2845 ft | 199 kts | 72° |
| 2026-04-30 18:11 | 54.10723 | 48.02466 | 2535 ft | 198 kts | 71° |
| 2026-04-30 18:12 | 54.13208 | 48.07688 | 2536 ft | 195 kts | 31° |
| 2026-04-30 18:13 | 54.15496 | 48.10186 | 2418 ft | 192 kts | 33° |
| 2026-04-30 18:13 | 54.18579 | 48.13523 | 2191 ft | 200 kts | 32° |
| 2026-04-30 18:14 | 54.21330 | 48.16463 | 1556 ft | 195 kts | 32° |
| 2026-04-30 18:15 | 54.24876 | 48.20194 | 2685 ft | 219 kts | 31° |
| 2026-04-30 18:15 | 54.28660 | 48.24228 | 3365 ft | 214 kts | 32° |
| 2026-04-30 18:16 | 54.31203 | 48.26959 | 4005 ft | 218 kts | 32° |
| 2026-04-30 18:16 | 54.33757 | 48.29702 | 4031 ft | 217 kts | 32° |
| 2026-04-30 18:17 | 54.35045 | 48.31086 | 4036 ft | 217 kts | 32° |
| 2026-04-30 18:17 | 54.36413 | 48.32216 | 4035 ft | 217 kts | 16° |
| 2026-04-30 18:17 | 54.39132 | 48.30750 | 4035 ft | 221 kts | 307° |
| 2026-04-30 18:18 | 54.39682 | 48.28309 | 4040 ft | 224 kts | 273° |
| 2026-04-30 18:18 | 54.39339 | 48.25712 | 4034 ft | 225 kts | 241° |
| 2026-04-30 18:18 | 54.38509 | 48.23507 | 4034 ft | 227 kts | 234° |
| 2026-04-30 18:18 | 54.37603 | 48.21378 | 4036 ft | 227 kts | 233° |
| 2026-04-30 18:19 | 54.36629 | 48.19137 | 4031 ft | 227 kts | 233° |
| 2026-04-30 18:19 | 54.35678 | 48.16956 | 4034 ft | 227 kts | 233° |
| 2026-04-30 18:19 | 54.34726 | 48.14777 | 4034 ft | 227 kts | 233° |
| 2026-04-30 18:19 | 54.33807 | 48.12678 | 4033 ft | 228 kts | 233° |
| 2026-04-30 18:20 | 54.32828 | 48.10449 | 4029 ft | 228 kts | 233° |
| 2026-04-30 18:20 | 54.31876 | 48.08284 | 4030 ft | 228 kts | 233° |
| 2026-04-30 18:20 | 54.30923 | 48.06115 | 4039 ft | 227 kts | 233° |
| 2026-04-30 18:20 | 54.29970 | 48.03932 | 4035 ft | 227 kts | 233° |
| 2026-04-30 18:21 | 54.29030 | 48.01772 | 4032 ft | 227 kts | 233° |
| 2026-04-30 18:21 | 54.28162 | 47.99774 | 4035 ft | 227 kts | 233° |
| 2026-04-30 18:21 | 54.27141 | 47.97430 | 4033 ft | 226 kts | 233° |
| 2026-04-30 18:21 | 54.26196 | 47.95260 | 4035 ft | 227 kts | 233° |
| 2026-04-30 18:22 | 54.25254 | 47.93098 | 4034 ft | 227 kts | 233° |
| 2026-04-30 18:22 | 54.23359 | 47.88782 | 4034 ft | 227 kts | 229° |
| 2026-04-30 18:22 | 54.22123 | 47.87205 | 4032 ft | 225 kts | 201° |
| 2026-04-30 18:23 | 54.20580 | 47.86665 | 4034 ft | 224 kts | 180° |
| 2026-04-30 18:23 | 54.19079 | 47.87173 | 4032 ft | 222 kts | 157° |
| 2026-04-30 18:23 | 54.17697 | 47.88189 | 4032 ft | 222 kts | 154° |
| 2026-04-30 18:23 | 54.16248 | 47.89344 | 4031 ft | 223 kts | 153° |
| 2026-04-30 18:24 | 54.13485 | 47.91601 | 3908 ft | 217 kts | 149° |
| 2026-04-30 18:24 | 54.12331 | 47.93179 | 3746 ft | 206 kts | 123° |
| 2026-04-30 18:24 | 54.11741 | 47.95372 | 3520 ft | 202 kts | 105° |
| 2026-04-30 18:25 | 54.11362 | 47.97609 | 3231 ft | 203 kts | 103° |
| 2026-04-30 18:25 | 54.11368 | 48.02563 | 2182 ft | 219 kts | 60° |
| 2026-04-30 18:25 | 54.12171 | 48.04693 | 2120 ft | 206 kts | 50° |
| 2026-04-30 18:26 | 54.14021 | 48.08013 | 2131 ft | 183 kts | 43° |
| 2026-04-30 18:26 | 54.14876 | 48.09435 | 2142 ft | 161 kts | 43° |
| 2026-04-30 18:26 | 54.15687 | 48.10570 | 2135 ft | 145 kts | 35° |
| 2026-04-30 18:27 | 54.17298 | 48.12322 | 2137 ft | 134 kts | 29° |
| 2026-04-30 18:27 | 54.18113 | 48.13111 | 2132 ft | 132 kts | 29° |
| 2026-04-30 18:28 | 54.19674 | 48.14715 | 2132 ft | 131 kts | 32° |
| 2026-04-30 18:28 | 54.20444 | 48.15537 | 2119 ft | 132 kts | 31° |
| 2026-04-30 18:28 | 54.22000 | 48.17172 | 1459 ft | 133 kts | 34° |
| 2026-04-30 18:29 | 54.22804 | 48.18059 | 1190 ft | 133 kts | 29° |
| 2026-04-30 18:29 | 54.25202 | 48.20590 | 668 ft | 136 kts | 32° |
| 2026-04-30 18:30 | 54.26523 | 48.22022 | 423 ft | 121 kts | 32° |
| 2026-04-30 18:30 | 54.27431 | 48.23001 | 413 ft | 42 kts | 32° |
| 2026-04-30 18:31 | 54.27623 | 48.23207 | 409 ft | 32 kts | 32° |
| 2026-04-30 18:31 | 54.28024 | 48.23636 | 394 ft | 32 kts | 32° |
| 2026-04-30 18:32 | 54.28289 | 48.23858 | 392 ft | 12 kts | 335° |
| 2026-04-30 18:32 | 54.28342 | 48.23754 | 389 ft | 2 kts | 303° |
| 2026-04-30 18:32 | 54.28349 | 48.23733 | 388 ft | 0 kts | 300° |
| 2026-04-30 18:33 | 54.28349 | 48.23732 | 388 ft | 1 kts | 300° |
| 2026-04-30 18:34 | 54.28379 | 48.23647 | 386 ft | 12 kts | 301° |
| 2026-04-30 18:34 | 54.28466 | 48.23537 | 379 ft | 8 kts | 6° |
| 2026-04-30 18:34 | 54.28468 | 48.23537 | 378 ft | 0 kts | 2° |